Time;durP1;ratioP1;P1;durP2;ratioP2;P2;SDS_P1;SDS_P2;PMS_P1;PMS_P2;Temp;Humidity;BMP_temperature;BMP_pressure;BME280_temperature;BME280_humidity;BME280_pressure;Samples;Min_cycle;Max_cycle;Signal;HPM_P1;HPM_P2
2021/11/18 00:00:45;;;;;;;52.17;34.33;;;9.20;99.90;;;;;;6324160;28;20467;-67
2021/11/18 00:03:49;;;;;;;51.20;35.50;;;9.20;99.90;;;;;;6324147;28;20460;-67
2021/11/18 00:06:52;;;;;;;47.87;32.50;;;9.10;99.90;;;;;;6324085;28;20482;-67
2021/11/18 00:09:57;;;;;;;49.10;32.27;;;9.20;99.90;;;;;;6323622;28;20507;-68
2021/11/18 00:13:02;;;;;;;43.30;31.33;;;9.20;99.90;;;;;;6324612;28;20496;-68
2021/11/18 00:16:06;;;;;;;46.23;33.20;;;9.20;99.90;;;;;;6324430;28;20464;-68
2021/11/18 00:19:10;;;;;;;43.70;32.43;;;9.10;99.90;;;;;;6324128;28;20464;-68
2021/11/18 00:22:13;;;;;;;44.90;31.43;;;9.10;99.90;;;;;;6323883;28;20471;-68
2021/11/18 00:25:17;;;;;;;43.57;30.73;;;9.00;99.90;;;;;;6323448;28;20983;-67
2021/11/18 00:28:21;;;;;;;60.20;35.10;;;8.90;99.90;;;;;;6323774;28;20788;-68
2021/11/18 00:31:27;;;;;;;45.33;32.10;;;8.90;99.90;;;;;;6323889;28;20472;-68
2021/11/18 00:34:30;;;;;;;52.07;34.93;;;8.90;99.90;;;;;;6323825;28;20967;-67
2021/11/18 00:37:34;;;;;;;53.60;34.23;;;8.80;99.90;;;;;;6323580;28;20476;-68
2021/11/18 00:40:41;;;;;;;57.97;36.43;;;8.80;99.90;;;;;;6313018;28;20465;-68
2021/11/18 00:43:45;;;;;;;59.10;37.60;;;8.90;99.90;;;;;;6298823;28;20461;-68
2021/11/18 00:46:48;;;;;;;54.10;36.23;;;8.90;99.90;;;;;;6299630;28;20490;-68
2021/11/18 00:49:52;;;;;;;48.30;35.73;;;8.90;99.90;;;;;;6323436;28;20479;-68
2021/11/18 00:52:56;;;;;;;51.93;37.00;;;8.80;99.90;;;;;;6323274;28;20479;-67
2021/11/18 00:56:00;;;;;;;58.57;37.00;;;8.80;99.90;;;;;;6320065;28;20487;-67
2021/11/18 00:59:04;;;;;;;53.73;34.93;;;8.80;99.90;;;;;;6315741;28;20460;-68
2021/11/18 01:02:07;;;;;;;54.30;35.43;;;8.90;99.90;;;;;;6323394;28;20440;-68
2021/11/18 01:05:13;;;;;;;51.17;34.53;;;8.90;99.90;;;;;;6325063;28;20827;-68
2021/11/18 01:08:16;;;;;;;57.60;36.53;;;8.90;99.90;;;;;;6323270;28;20433;-68
2021/11/18 01:11:24;;;;;;;58.60;38.07;;;8.90;99.90;;;;;;6326991;28;20476;-67
2021/11/18 01:14:27;;;;;;;64.90;39.33;;;8.90;99.90;;;;;;6326975;28;20479;-67
2021/11/18 01:17:30;;;;;;;54.67;38.53;;;8.90;99.90;;;;;;6327312;28;20468;-67
2021/11/18 01:20:35;;;;;;;59.83;39.70;;;8.80;99.90;;;;;;6324685;28;20828;-67
2021/11/18 01:23:41;;;;;;;62.37;40.30;;;8.70;99.90;;;;;;6326662;28;20959;-67
2021/11/18 01:26:46;;;;;;;57.87;38.10;;;8.80;99.90;;;;;;6327292;28;20477;-67
2021/11/18 01:29:49;;;;;;;62.70;41.17;;;8.80;99.90;;;;;;6326957;28;20535;-67
2021/11/18 01:32:55;;;;;;;65.40;40.23;;;8.80;99.90;;;;;;6324127;28;20955;-67
2021/11/18 01:35:58;;;;;;;64.97;39.80;;;8.70;99.90;;;;;;6327077;28;20469;-67
2021/11/18 01:39:02;;;;;;;51.73;36.77;;;8.70;99.90;;;;;;6327083;28;20487;-67
2021/11/18 01:42:07;;;;;;;62.07;38.70;;;8.70;99.90;;;;;;6327223;28;20460;-67
2021/11/18 01:45:13;;;;;;;63.67;39.90;;;8.80;99.90;;;;;;6326856;28;20469;-67
2021/11/18 01:48:16;;;;;;;67.73;40.67;;;8.80;99.90;;;;;;6324965;28;20469;-67
2021/11/18 01:51:23;;;;;;;73.20;43.53;;;8.70;99.90;;;;;;6327058;28;20476;-67
2021/11/18 01:54:28;;;;;;;64.27;39.97;;;8.70;99.90;;;;;;6327176;28;20472;-67
2021/11/18 01:57:34;;;;;;;64.20;39.40;;;8.70;99.90;;;;;;6327298;28;20468;-67
2021/11/18 02:00:41;;;;;;;64.00;37.77;;;8.70;99.90;;;;;;6327476;28;21023;-67
2021/11/18 02:03:45;;;;;;;64.43;41.07;;;8.70;99.90;;;;;;6326673;28;20472;-67
2021/11/18 02:06:52;;;;;;;79.37;42.33;;;8.70;99.90;;;;;;6317033;28;20495;-67
2021/11/18 02:09:55;;;;;;;68.40;40.27;;;8.70;99.90;;;;;;6326719;28;20963;-67
2021/11/18 02:13:02;;;;;;;68.97;41.00;;;8.70;99.90;;;;;;6326493;28;20975;-67
2021/11/18 02:16:12;;;;;;;65.27;40.63;;;8.70;99.90;;;;;;6326432;28;20472;-67
2021/11/18 02:19:17;;;;;;;74.60;43.37;;;8.70;99.90;;;;;;6326410;28;20553;-67
2021/11/18 02:22:23;;;;;;;69.57;41.63;;;8.70;99.90;;;;;;6326687;28;20956;-66
2021/11/18 02:25:30;;;;;;;76.87;41.90;;;8.60;99.90;;;;;;6326162;28;20534;-66
2021/11/18 02:28:36;;;;;;;69.23;41.43;;;8.50;99.90;;;;;;6326396;28;20817;-66
2021/11/18 02:31:42;;;;;;;66.87;41.57;;;8.50;99.90;;;;;;6325958;28;20487;-66
2021/11/18 02:34:48;;;;;;;69.70;40.40;;;8.50;99.90;;;;;;6325845;28;20486;-66
2021/11/18 02:37:54;;;;;;;62.17;39.37;;;8.50;99.90;;;;;;6326020;28;20484;-66
2021/11/18 02:40:57;;;;;;;75.47;44.37;;;8.50;99.90;;;;;;6326140;28;20468;-67
2021/11/18 02:44:00;;;;;;;77.07;42.50;;;8.60;99.90;;;;;;6326173;28;20468;-67
2021/11/18 02:47:06;;;;;;;64.80;40.57;;;8.60;99.90;;;;;;6325954;28;20475;-67
2021/11/18 02:50:12;;;;;;;66.47;38.70;;;8.60;99.90;;;;;;6325915;28;20451;-67
2021/11/18 02:53:17;;;;;;;67.63;40.27;;;8.60;99.90;;;;;;6326075;28;20487;-67
2021/11/18 02:56:21;;;;;;;73.20;42.23;;;8.60;99.90;;;;;;6325491;28;20464;-67
2021/11/18 02:59:24;;;;;;;68.40;40.70;;;8.50;99.90;;;;;;6325788;28;20468;-67
2021/11/18 03:02:27;;;;;;;65.40;41.63;;;8.50;99.90;;;;;;6325412;28;20495;-67
2021/11/18 03:05:31;;;;;;;67.83;39.07;;;8.50;99.90;;;;;;6325389;28;20484;-67
2021/11/18 03:08:35;;;;;;;60.63;38.30;;;8.50;99.90;;;;;;6316951;28;20471;-67
2021/11/18 03:11:39;;;;;;;63.23;37.17;;;8.40;99.90;;;;;;6325316;28;20480;-67
2021/11/18 03:14:42;;;;;;;56.27;36.37;;;8.40;99.90;;;;;;6324994;28;20797;-67
2021/11/18 03:17:47;;;;;;;56.60;36.00;;;8.50;99.90;;;;;;6325575;28;20592;-67
2021/11/18 03:20:50;;;;;;;61.37;36.80;;;8.50;99.90;;;;;;6325676;28;20471;-67
2021/11/18 03:23:55;;;;;;;59.40;36.07;;;8.50;99.90;;;;;;6325162;28;20955;-67
2021/11/18 03:26:58;;;;;;;61.23;37.23;;;8.40;99.90;;;;;;6325636;28;20479;-67
2021/11/18 03:30:02;;;;;;;56.20;33.40;;;8.50;99.90;;;;;;6325382;28;20475;-67
2021/11/18 03:33:08;;;;;;;59.20;34.83;;;8.50;99.90;;;;;;6324948;28;20491;-67
2021/11/18 03:36:12;;;;;;;50.30;34.87;;;8.50;99.90;;;;;;6324923;28;20477;-67
2021/11/18 03:39:17;;;;;;;51.73;32.83;;;8.50;99.90;;;;;;6325279;28;20483;-67
2021/11/18 03:42:21;;;;;;;54.33;34.43;;;8.40;99.90;;;;;;6324613;28;20475;-67
2021/11/18 03:45:27;;;;;;;56.73;33.77;;;8.40;99.90;;;;;;6324703;28;21009;-67
2021/11/18 03:48:33;;;;;;;50.27;31.13;;;8.30;99.90;;;;;;6324897;28;20468;-67
2021/11/18 03:51:36;;;;;;;52.60;32.70;;;8.30;99.90;;;;;;6324765;28;20479;-67
2021/11/18 03:54:44;;;;;;;48.07;31.13;;;8.30;99.90;;;;;;6324540;28;20487;-67
2021/11/18 03:57:48;;;;;;;52.53;32.50;;;8.40;99.90;;;;;;6324764;28;20547;-67
2021/11/18 04:00:51;;;;;;;50.87;29.90;;;8.40;99.90;;;;;;6324364;28;20474;-67
2021/11/18 04:03:54;;;;;;;53.73;31.77;;;8.40;99.90;;;;;;6324709;28;20565;-67
2021/11/18 04:06:58;;;;;;;54.20;31.60;;;8.40;99.90;;;;;;6324975;28;20819;-67
2021/11/18 04:10:03;;;;;;;47.97;31.40;;;8.50;99.90;;;;;;6324584;28;20471;-67
2021/11/18 04:13:08;;;;;;;47.00;31.80;;;8.50;99.90;;;;;;6319544;28;20473;-67
2021/11/18 04:16:11;;;;;;;52.50;32.73;;;8.40;99.90;;;;;;6324451;28;20472;-67
2021/11/18 04:19:15;;;;;;;48.40;32.27;;;8.40;99.90;;;;;;6324258;28;20468;-67
2021/11/18 04:22:19;;;;;;;52.10;32.03;;;8.40;99.90;;;;;;6323958;28;20838;-67
2021/11/18 04:25:26;;;;;;;50.57;32.10;;;8.50;99.90;;;;;;6323919;28;20475;-67
2021/11/18 04:28:29;;;;;;;50.87;32.20;;;8.40;99.90;;;;;;6324377;28;20475;-67
2021/11/18 04:31:33;;;;;;;53.67;30.77;;;8.40;99.90;;;;;;6324223;28;20472;-67
2021/11/18 04:34:37;;;;;;;52.00;31.40;;;8.40;99.90;;;;;;6323635;28;20540;-67
2021/11/18 04:37:40;;;;;;;47.33;30.20;;;8.40;99.90;;;;;;6327133;28;20528;-67
2021/11/18 04:40:45;;;;;;;46.93;30.27;;;8.40;99.90;;;;;;6328757;28;20472;-68
2021/11/18 04:43:49;;;;;;;49.60;32.60;;;8.50;99.90;;;;;;6328726;28;20460;-67
2021/11/18 04:46:53;;;;;;;50.97;29.63;;;8.50;99.90;;;;;;6328600;28;20488;-68
2021/11/18 04:49:56;;;;;;;53.30;30.70;;;8.50;99.90;;;;;;6328250;28;20475;-67
2021/11/18 04:53:00;;;;;;;50.13;31.47;;;8.50;99.90;;;;;;6329007;28;20480;-67
2021/11/18 04:56:06;;;;;;;48.40;30.17;;;8.50;99.90;;;;;;6327906;28;20479;-67
2021/11/18 04:59:10;;;;;;;51.50;30.60;;;8.60;99.90;;;;;;6328971;28;20427;-68
2021/11/18 05:02:14;;;;;;;48.43;31.50;;;8.60;99.90;;;;;;6327890;28;20440;-68
2021/11/18 05:05:20;;;;;;;51.23;31.23;;;8.60;99.90;;;;;;6328574;28;20501;-67
2021/11/18 05:08:23;;;;;;;51.73;33.10;;;8.60;99.90;;;;;;6328568;28;20471;-67
2021/11/18 05:11:27;;;;;;;49.83;31.80;;;8.60;99.90;;;;;;6328310;28;20471;-67
2021/11/18 05:14:31;;;;;;;47.10;28.57;;;8.60;99.90;;;;;;6327818;28;20510;-68
2021/11/18 05:17:34;;;;;;;56.50;32.57;;;8.70;99.90;;;;;;6322982;28;20793;-67
2021/11/18 05:20:38;;;;;;;53.90;30.87;;;8.70;99.90;;;;;;6328189;28;20471;-68
2021/11/18 05:23:41;;;;;;;45.27;29.43;;;8.70;99.90;;;;;;6327873;28;20804;-68
2021/11/18 05:26:47;;;;;;;50.20;32.93;;;8.70;99.90;;;;;;6327547;28;20825;-68
2021/11/18 05:29:50;;;;;;;59.30;32.97;;;8.60;99.90;;;;;;6328058;28;20468;-68
2021/11/18 05:32:54;;;;;;;54.20;35.30;;;8.70;99.90;;;;;;6327412;28;20472;-68
2021/11/18 05:35:57;;;;;;;57.10;33.77;;;8.70;99.90;;;;;;6327445;28;20465;-68
2021/11/18 05:39:01;;;;;;;55.10;32.70;;;8.70;99.90;;;;;;6327201;28;20479;-67
2021/11/18 05:42:05;;;;;;;57.40;34.37;;;8.70;99.90;;;;;;6327506;28;20979;-67
2021/11/18 05:45:13;;;;;;;56.17;34.67;;;8.70;99.90;;;;;;6327239;28;20475;-67
2021/11/18 05:48:19;;;;;;;55.30;34.53;;;8.70;99.90;;;;;;6327232;28;20476;-67
2021/11/18 05:51:22;;;;;;;59.13;33.70;;;8.70;99.90;;;;;;6327132;28;20464;-68
2021/11/18 05:54:25;;;;;;;64.63;33.87;;;8.80;99.90;;;;;;6327129;28;20472;-68
2021/11/18 05:57:29;;;;;;;61.57;34.67;;;8.70;99.90;;;;;;6327138;28;20487;-69
2021/11/18 06:00:33;;;;;;;62.97;35.47;;;8.70;99.90;;;;;;6326868;28;20955;-68
2021/11/18 06:03:38;;;;;;;59.57;36.20;;;8.70;99.90;;;;;;6326945;28;20464;-68
2021/11/18 06:06:42;;;;;;;64.77;36.50;;;8.70;99.90;;;;;;6326779;28;20487;-67
2021/11/18 06:09:45;;;;;;;59.80;36.10;;;8.70;99.90;;;;;;6326496;28;20765;-67
2021/11/18 06:12:49;;;;;;;55.97;32.40;;;8.70;99.90;;;;;;6326781;28;20540;-67
2021/11/18 06:15:53;;;;;;;53.93;34.07;;;8.70;99.90;;;;;;6326334;28;20469;-67
2021/11/18 06:19:01;;;;;;;57.23;34.50;;;8.60;99.90;;;;;;6326828;28;20468;-67
2021/11/18 06:22:04;;;;;;;53.60;33.03;;;8.60;99.90;;;;;;6316311;28;20848;-68
2021/11/18 06:25:09;;;;;;;64.13;36.30;;;8.60;99.90;;;;;;6326443;28;20975;-68
2021/11/18 06:28:14;;;;;;;58.07;32.43;;;8.70;99.90;;;;;;6326118;28;20779;-68
2021/11/18 06:31:18;;;;;;;56.17;33.57;;;8.70;99.90;;;;;;6325878;28;20813;-68
2021/11/18 06:34:21;;;;;;;55.23;32.80;;;8.80;99.90;;;;;;6326337;28;20476;-68
2021/11/18 06:37:25;;;;;;;59.73;34.23;;;8.70;99.90;;;;;;6325573;28;20480;-68
2021/11/18 06:40:28;;;;;;;58.70;35.60;;;8.70;99.90;;;;;;6326222;28;20489;-68
2021/11/18 06:43:33;;;;;;;53.50;32.67;;;8.70;99.90;;;;;;6325739;28;20465;-67
2021/11/18 06:46:37;;;;;;;52.13;33.07;;;8.70;99.90;;;;;;6325528;28;20482;-67
2021/11/18 06:49:40;;;;;;;55.00;36.03;;;8.70;99.90;;;;;;6326005;28;20468;-67
2021/11/18 06:52:43;;;;;;;62.23;35.60;;;8.60;99.90;;;;;;6325554;28;20585;-68
2021/11/18 06:55:46;;;;;;;64.83;36.47;;;8.60;99.90;;;;;;6325226;28;20971;-68
2021/11/18 06:58:51;;;;;;;61.90;35.73;;;8.60;99.90;;;;;;6324661;28;20464;-66
2021/11/18 07:01:56;;;;;;;61.03;34.97;;;8.60;99.90;;;;;;6324128;28;20850;-68
2021/11/18 07:05:00;;;;;;;60.30;36.30;;;8.70;99.90;;;;;;6324019;28;20909;-68
2021/11/18 07:08:05;;;;;;;69.00;36.63;;;8.60;99.90;;;;;;6324555;28;20905;-68
2021/11/18 07:11:09;;;;;;;60.97;38.10;;;8.60;99.90;;;;;;6324787;28;20452;-68
2021/11/18 07:14:14;;;;;;;62.40;37.73;;;8.70;99.90;;;;;;6325401;28;20472;-68
2021/11/18 07:17:17;;;;;;;59.43;34.40;;;8.80;99.90;;;;;;6324939;28;20878;-68
2021/11/18 07:20:20;;;;;;;64.03;37.43;;;8.70;99.90;;;;;;6325273;28;20451;-68
2021/11/18 07:23:25;;;;;;;72.17;41.30;;;8.80;99.90;;;;;;6320208;28;20741;-68
2021/11/18 07:26:28;;;;;;;62.50;36.90;;;8.80;99.90;;;;;;6323469;28;20483;-68
2021/11/18 07:29:33;;;;;;;58.43;37.00;;;8.80;99.90;;;;;;6323019;28;21062;-68
2021/11/18 07:32:36;;;;;;;67.87;38.77;;;8.80;99.90;;;;;;6322246;28;20471;-68
2021/11/18 07:35:41;;;;;;;60.60;36.57;;;8.80;99.90;;;;;;6321844;28;20529;-68
2021/11/18 07:38:44;;;;;;;63.10;38.70;;;8.70;99.90;;;;;;6322589;28;20482;-67
2021/11/18 07:41:47;;;;;;;71.37;40.23;;;8.60;99.90;;;;;;6323517;28;20471;-68
2021/11/18 07:44:52;;;;;;;66.53;39.33;;;8.50;99.90;;;;;;6325298;28;20468;-68
2021/11/18 07:47:56;;;;;;;69.20;41.30;;;8.60;99.90;;;;;;6324892;28;20593;-68
2021/11/18 07:51:00;;;;;;;62.57;36.43;;;8.80;99.90;;;;;;6325338;28;20463;-68
2021/11/18 07:54:04;;;;;;;66.93;39.97;;;9.00;99.90;;;;;;6325264;28;20766;-68
2021/11/18 07:57:07;;;;;;;63.80;38.00;;;9.10;99.90;;;;;;6325162;28;20838;-68
2021/11/18 08:00:15;;;;;;;60.80;37.30;;;9.20;99.90;;;;;;6325404;28;20471;-68
2021/11/18 08:03:19;;;;;;;68.00;40.97;;;9.30;99.90;;;;;;6324865;28;20475;-67
2021/11/18 08:06:26;;;;;;;61.63;37.97;;;9.50;99.90;;;;;;6324639;28;20575;-67
2021/11/18 08:09:30;;;;;;;61.97;35.40;;;9.70;99.90;;;;;;6324315;28;20464;-67
2021/11/18 08:12:35;;;;;;;47.60;31.53;;;9.90;99.90;;;;;;6329715;28;20814;-67
2021/11/18 08:15:40;;;;;;;42.70;30.03;;;10.00;99.90;;;;;;6329509;28;20843;-67
2021/11/18 08:18:43;;;;;;;39.63;27.97;;;10.20;99.90;;;;;;6329351;28;20468;-67
2021/11/18 08:21:48;;;;;;;46.47;29.17;;;10.50;99.90;;;;;;6329389;28;20975;-67
2021/11/18 08:24:51;;;;;;;47.83;31.33;;;10.70;99.90;;;;;;6328880;28;20610;-66
2021/11/18 08:27:55;;;;;;;47.30;29.77;;;11.00;99.90;;;;;;6329232;28;20475;-66
2021/11/18 08:31:01;;;;;;;45.57;31.67;;;11.20;99.90;;;;;;6328725;28;20858;-66
2021/11/18 08:34:04;;;;;;;44.17;30.77;;;11.40;99.90;;;;;;6328304;28;20622;-66
2021/11/18 08:37:09;;;;;;;55.27;31.63;;;11.60;99.90;;;;;;6328474;28;20486;-66
2021/11/18 08:40:16;;;;;;;45.03;30.10;;;11.60;99.90;;;;;;6329544;28;20464;-66
2021/11/18 08:43:21;;;;;;;46.20;30.00;;;11.70;99.90;;;;;;6324717;28;20471;-67
2021/11/18 08:46:26;;;;;;;42.50;29.73;;;11.90;99.90;;;;;;6329446;28;20963;-67
2021/11/18 08:49:30;;;;;;;43.57;30.37;;;11.90;99.90;;;;;;6328413;28;20962;-67
2021/11/18 08:52:35;;;;;;;45.00;29.23;;;11.90;99.90;;;;;;6328275;28;20850;-67
2021/11/18 08:55:41;;;;;;;44.17;29.67;;;11.80;99.90;;;;;;6327809;28;20468;-67
2021/11/18 08:58:47;;;;;;;43.70;30.10;;;11.70;99.80;;;;;;6328215;28;20475;-67
2021/11/18 09:01:54;;;;;;;40.13;28.97;;;11.60;99.90;;;;;;6327535;28;20464;-66
2021/11/18 09:04:59;;;;;;;37.27;26.43;;;11.60;99.90;;;;;;6327917;28;20460;-66
2021/11/18 09:08:04;;;;;;;43.63;28.30;;;11.50;99.90;;;;;;6327918;28;20471;-66
2021/11/18 09:11:11;;;;;;;39.27;27.80;;;11.50;99.90;;;;;;6327872;28;20479;-65
2021/11/18 09:14:16;;;;;;;36.90;27.07;;;11.50;99.90;;;;;;6327789;28;20476;-67
2021/11/18 09:17:20;;;;;;;40.90;29.07;;;11.40;99.90;;;;;;6327463;28;20472;-66
2021/11/18 09:20:28;;;;;;;47.87;29.60;;;11.50;99.90;;;;;;6327909;28;20748;-67
2021/11/18 09:23:35;;;;;;;45.20;30.03;;;11.70;99.90;;;;;;6326628;28;20822;-67
2021/11/18 09:26:41;;;;;;;41.73;30.50;;;11.80;99.90;;;;;;6327879;28;20488;-65
2021/11/18 09:29:44;;;;;;;46.17;29.20;;;12.00;99.90;;;;;;6327982;28;21097;-66
2021/11/18 09:32:49;;;;;;;46.53;33.10;;;12.00;99.50;;;;;;6318428;28;20479;-66
2021/11/18 09:35:55;;;;;;;46.97;30.97;;;12.10;99.40;;;;;;6327962;28;20487;-66
2021/11/18 09:39:00;;;;;;;48.37;31.10;;;12.00;99.50;;;;;;6328018;28;20484;-65
2021/11/18 09:42:07;;;;;;;44.23;30.70;;;12.10;99.50;;;;;;6327573;28;20492;-65
2021/11/18 09:45:18;;;;;;;40.90;29.37;;;12.20;99.30;;;;;;6326864;28;20964;-66
2021/11/18 09:48:46;;;;;;;42.33;29.07;;;12.20;99.20;;;;;;6327132;28;20486;-64
2021/11/18 09:51:58;;;;;;;44.33;28.73;;;12.20;98.50;;;;;;6327457;28;20802;-65
2021/11/18 09:55:08;;;;;;;41.03;26.27;;;12.20;98.50;;;;;;6326674;28;20491;-65
2021/11/18 09:58:27;;;;;;;39.97;25.93;;;12.30;98.10;;;;;;6327221;28;20477;-64
2021/11/18 10:02:01;;;;;;;41.40;26.10;;;12.50;98.00;;;;;;6326540;28;20465;-67
2021/11/18 10:05:09;;;;;;;35.93;25.67;;;12.90;97.30;;;;;;6324008;28;20449;-64
2021/11/18 10:08:15;;;;;;;38.87;25.57;;;14.90;96.60;;;;;;6301714;28;20437;-64
2021/11/18 10:11:21;;;;;;;32.23;21.03;;;18.30;91.10;;;;;;6302068;28;20418;-64
2021/11/18 10:14:52;;;;;;;29.60;23.00;;;21.50;71.40;;;;;;6302046;28;20462;-65
2021/11/18 10:17:59;;;;;;;31.73;24.67;;;25.30;57.00;;;;;;6302336;28;20696;-66
2021/11/18 10:21:10;;;;;;;31.33;27.50;;;28.20;46.60;;;;;;6301719;28;20222;-66
2021/11/18 10:24:17;;;;;;;31.23;26.37;;;28.60;41.10;;;;;;6313007;28;20242;-66
2021/11/18 10:27:23;;;;;;;25.47;22.50;;;26.50;40.90;;;;;;6325942;28;20233;-66
2021/11/18 10:30:39;;;;;;;26.97;22.60;;;24.50;43.00;;;;;;6326233;28;20280;-65
2021/11/18 10:33:51;;;;;;;25.80;22.53;;;22.80;46.60;;;;;;6326379;28;20670;-67
2021/11/18 10:37:07;;;;;;;27.07;21.97;;;21.20;48.70;;;;;;6316911;28;20242;-67
2021/11/18 10:40:16;;;;;;;28.73;22.20;;;20.30;52.10;;;;;;6326073;28;20234;-66
2021/11/18 10:43:20;;;;;;;21.00;17.43;;;20.90;52.90;;;;;;6326026;28;20234;-68
2021/11/18 10:46:30;;;;;;;21.20;17.33;;;22.80;49.70;;;;;;6325842;28;20230;-66
2021/11/18 10:49:42;;;;;;;19.60;17.50;;;24.80;46.20;;;;;;6323606;28;20234;-68
2021/11/18 10:52:55;;;;;;;21.40;16.70;;;25.80;43.20;;;;;;6325773;27;20602;-67
2021/11/18 10:56:07;;;;;;;18.67;16.70;;;26.30;41.00;;;;;;6325221;28;20233;-67
2021/11/18 10:59:14;;;;;;;19.50;17.50;;;27.00;39.60;;;;;;6299936;28;20232;-66
2021/11/18 11:02:23;;;;;;;18.70;16.83;;;27.10;38.30;;;;;;6300185;28;20207;-66
2021/11/18 11:05:37;;;;;;;18.13;15.87;;;27.00;37.90;;;;;;6303302;28;20356;-68
2021/11/18 11:08:44;;;;;;;18.03;16.30;;;26.50;38.70;;;;;;6324943;28;20221;-67
2021/11/18 11:12:05;;;;;;;18.77;15.70;;;26.90;38.30;;;;;;6324870;28;20218;-68
2021/11/18 11:15:50;;;;;;;18.50;16.60;;;26.50;37.80;;;;;;6324906;28;20230;-68
2021/11/18 11:19:02;;;;;;;18.10;16.20;;;25.80;38.90;;;;;;6320277;28;20226;-67
2021/11/18 11:22:14;;;;;;;16.50;14.60;;;25.70;38.60;;;;;;6321700;28;20270;-71
2021/11/18 11:25:38;;;;;;;15.30;13.70;;;24.80;39.70;;;;;;6305318;28;20223;-70
2021/11/18 11:28:52;;;;;;;17.00;14.93;;;23.60;41.80;;;;;;6299995;28;20705;-69
2021/11/18 11:32:04;;;;;;;15.70;13.97;;;23.20;42.60;;;;;;6299371;28;20222;-69
2021/11/18 11:35:29;;;;;;;15.97;13.23;;;23.20;41.80;;;;;;6299207;28;20534;-69
2021/11/18 11:38:47;;;;;;;13.10;11.67;;;23.20;42.10;;;;;;6318832;28;20239;-68
2021/11/18 11:42:25;;;;;;;13.20;11.80;;;23.90;41.00;;;;;;6297580;28;20223;-69
2021/11/18 11:45:40;;;;;;;12.57;11.37;;;24.90;39.80;;;;;;6297141;28;20300;-68
2021/11/18 11:49:06;;;;;;;11.97;10.73;;;25.60;38.30;;;;;;6298790;28;20242;-68
2021/11/18 11:52:39;;;;;;;12.50;11.20;;;27.10;36.20;;;;;;6300184;28;20241;-67
2021/11/18 11:56:05;;;;;;;12.60;11.20;;;27.40;35.30;;;;;;6301383;28;20223;-68
2021/11/18 11:59:15;;;;;;;13.90;10.63;;;28.20;34.30;;;;;;6321820;28;20554;-68
2021/11/18 12:02:32;;;;;;;13.10;11.87;;;30.80;31.80;;;;;;6323123;28;20637;-69
2021/11/18 12:05:43;;;;;;;11.20;10.10;;;32.60;28.80;;;;;;6324434;28;20228;-67
2021/11/18 12:08:51;;;;;;;12.57;11.40;;;34.30;27.00;;;;;;6324418;28;20229;-67
2021/11/18 12:11:58;;;;;;;12.30;11.13;;;34.40;26.50;;;;;;6324266;28;20564;-67
2021/11/18 12:15:05;;;;;;;14.00;12.52;;;34.70;25.40;;;;;;6324115;28;20232;-68
2021/11/18 12:18:22;;;;;;;14.05;11.32;;;35.20;25.10;;;;;;6324485;28;20233;-69
2021/11/18 12:21:26;;;;;;;11.77;10.77;;;34.70;24.60;;;;;;6322380;28;20221;-67
2021/11/18 12:25:01;;;;;;;12.60;10.68;;;34.60;24.60;;;;;;6322206;28;20555;-68
2021/11/18 12:28:18;;;;;;;11.88;10.65;;;34.90;24.50;;;;;;6322738;28;20233;-69
2021/11/18 12:31:32;;;;;;;11.40;10.40;;;34.40;24.80;;;;;;6322431;28;20233;-71
2021/11/18 12:34:54;;;;;;;11.18;10.07;;;34.70;24.00;;;;;;6322848;28;20362;-67
2021/11/18 12:38:02;;;;;;;14.60;13.38;;;34.20;23.80;;;;;;6320824;28;20666;-68
2021/11/18 12:41:43;;;;;;;14.05;11.25;;;33.90;24.40;;;;;;6323637;28;20569;-68
2021/11/18 12:44:58;;;;;;;11.93;10.80;;;32.00;25.50;;;;;;6309859;28;20225;-67
2021/11/18 12:48:14;;;;;;;13.50;12.20;;;31.40;26.10;;;;;;6323407;28;20233;-67
2021/11/18 12:51:25;;;;;;;15.40;12.20;;;29.70;28.00;;;;;;6324261;28;20727;-67
2021/11/18 12:54:35;;;;;;;11.90;10.80;;;29.40;28.30;;;;;;6323688;28;20226;-69
2021/11/18 12:57:40;;;;;;;13.83;12.40;;;29.80;28.00;;;;;;6324909;28;20237;-67
2021/11/18 13:00:47;;;;;;;11.60;10.30;;;29.20;28.50;;;;;;6327706;28;20265;-68
2021/11/18 13:04:01;;;;;;;15.73;11.50;;;27.40;30.00;;;;;;6328455;28;20255;-67
2021/11/18 13:07:06;;;;;;;13.13;11.83;;;26.10;31.50;;;;;;6327529;28;20222;-70
2021/11/18 13:10:38;;;;;;;13.03;11.20;;;25.30;33.00;;;;;;6328373;28;20253;-69
2021/11/18 13:13:42;;;;;;;11.70;10.50;;;24.40;35.30;;;;;;6326847;28;20234;-68
2021/11/18 13:17:01;;;;;;;12.10;10.87;;;24.40;34.90;;;;;;6328107;28;20233;-69
2021/11/18 13:20:42;;;;;;;14.20;11.33;;;25.10;34.70;;;;;;6328531;28;20226;-68
2021/11/18 13:23:58;;;;;;;11.87;10.27;;;26.00;33.50;;;;;;6327908;28;20226;-68
2021/11/18 13:27:01;;;;;;;13.20;11.80;;;26.40;32.80;;;;;;6328622;28;20237;-68
2021/11/18 13:30:31;;;;;;;11.03;9.37;;;26.50;32.10;;;;;;6327561;28;20320;-68
2021/11/18 13:33:38;;;;;;;11.23;9.07;;;25.80;32.20;;;;;;6328413;27;20241;-69
2021/11/18 13:36:42;;;;;;;11.50;10.30;;;25.00;33.10;;;;;;6327562;28;20234;-69
2021/11/18 13:39:51;;;;;;;9.60;8.70;;;25.20;33.30;;;;;;6328381;28;20226;-68
2021/11/18 13:43:08;;;;;;;8.70;7.40;;;25.00;33.30;;;;;;6327507;28;20237;-68
2021/11/18 13:46:13;;;;;;;7.10;6.30;;;25.30;32.50;;;;;;6327502;28;20226;-67
2021/11/18 13:49:23;;;;;;;6.83;6.07;;;25.30;31.70;;;;;;6318113;28;20234;-68
2021/11/18 13:52:33;;;;;;;8.90;8.00;;;25.40;31.80;;;;;;6327455;28;20241;-68
2021/11/18 13:55:47;;;;;;;8.73;6.93;;;25.00;32.30;;;;;;6326997;28;20237;-67
2021/11/18 13:58:53;;;;;;;8.13;7.03;;;24.30;33.10;;;;;;6328325;28;20241;-68
2021/11/18 14:02:01;;;;;;;8.40;7.60;;;22.80;35.30;;;;;;6328636;28;20230;-68
2021/11/18 14:05:09;;;;;;;7.47;6.77;;;21.40;37.00;;;;;;6327361;28;20363;-67
2021/11/18 14:08:17;;;;;;;7.97;7.17;;;20.00;39.20;;;;;;6301619;28;20220;-69
2021/11/18 14:11:25;;;;;;;7.30;6.60;;;19.20;41.30;;;;;;6302083;28;20529;-69
2021/11/18 14:14:45;;;;;;;7.30;5.93;;;18.20;42.80;;;;;;6301980;28;20472;-67
2021/11/18 14:17:55;;;;;;;8.30;6.00;;;17.50;44.10;;;;;;6301829;28;20555;-68
2021/11/18 14:21:09;;;;;;;7.40;5.77;;;16.90;45.50;;;;;;6301896;28;20940;-69
2021/11/18 14:24:30;;;;;;;6.47;5.77;;;16.50;46.60;;;;;;6305070;28;20476;-69
2021/11/18 14:27:35;;;;;;;9.23;5.90;;;16.10;47.20;;;;;;6304193;28;20802;-67
2021/11/18 14:30:50;;;;;;;7.77;6.37;;;15.80;47.80;;;;;;6301118;28;20520;-67
2021/11/18 14:34:00;;;;;;;6.67;5.70;;;15.40;48.70;;;;;;6322743;27;20467;-67
2021/11/18 14:37:28;;;;;;;10.10;7.07;;;15.10;49.60;;;;;;6325774;28;20485;-66
2021/11/18 14:40:41;;;;;;;7.73;5.37;;;14.90;50.30;;;;;;6325814;28;20475;-68
2021/11/18 14:43:59;;;;;;;8.57;5.90;;;14.70;51.20;;;;;;6325851;28;20488;-68
2021/11/18 14:47:06;;;;;;;8.53;5.90;;;14.50;51.70;;;;;;6325664;28;20472;-68
2021/11/18 14:50:14;;;;;;;5.80;5.10;;;14.30;52.20;;;;;;6321215;28;20421;-68
2021/11/18 14:53:26;;;;;;;5.90;4.90;;;14.10;52.80;;;;;;6326144;28;20420;-67
2021/11/18 14:56:35;;;;;;;12.93;6.80;;;13.90;53.60;;;;;;6325325;28;20456;-67
2021/11/18 14:59:40;;;;;;;8.33;6.50;;;13.70;54.30;;;;;;6325382;28;20471;-69
2021/11/18 15:02:44;;;;;;;7.90;6.63;;;13.70;55.10;;;;;;6325603;28;20464;-69
2021/11/18 15:05:48;;;;;;;9.70;6.10;;;13.50;55.40;;;;;;6325109;28;20959;-68
2021/11/18 15:08:52;;;;;;;8.63;6.27;;;13.40;56.10;;;;;;6325562;28;20468;-65
2021/11/18 15:12:00;;;;;;;7.77;6.37;;;13.30;57.00;;;;;;6325002;28;20798;-68
2021/11/18 15:15:08;;;;;;;10.27;6.40;;;13.20;57.00;;;;;;6323304;28;20473;-65
2021/11/18 15:18:13;;;;;;;9.30;6.40;;;13.10;58.20;;;;;;6324970;28;20485;-65
2021/11/18 15:21:17;;;;;;;11.47;6.70;;;13.00;59.80;;;;;;6324076;28;20472;-65
2021/11/18 15:24:27;;;;;;;7.07;6.00;;;12.90;60.20;;;;;;6299845;28;20465;-65
2021/11/18 15:27:31;;;;;;;9.27;7.07;;;12.80;61.10;;;;;;6299677;28;20483;-65
2021/11/18 15:30:40;;;;;;;12.57;7.73;;;12.70;62.50;;;;;;6299532;28;20461;-65
2021/11/18 15:33:44;;;;;;;8.80;7.27;;;12.60;63.40;;;;;;6320060;28;20475;-64
2021/11/18 15:36:48;;;;;;;12.40;9.03;;;12.50;64.20;;;;;;6324234;28;20472;-64
2021/11/18 15:39:52;;;;;;;11.20;8.60;;;12.40;65.20;;;;;;6324896;28;20472;-64
2021/11/18 15:42:56;;;;;;;13.03;9.33;;;12.40;66.30;;;;;;6325293;28;20480;-64
2021/11/18 15:46:01;;;;;;;14.13;10.03;;;12.30;66.80;;;;;;6324842;28;20476;-64
2021/11/18 15:49:05;;;;;;;13.37;10.30;;;12.20;67.70;;;;;;6324645;28;20468;-65
2021/11/18 15:52:12;;;;;;;10.83;8.00;;;12.20;68.70;;;;;;6324807;27;20475;-65
2021/11/18 15:55:16;;;;;;;7.63;6.60;;;12.10;69.70;;;;;;6315223;27;20939;-65
2021/11/18 15:58:21;;;;;;;10.60;7.77;;;12.00;70.40;;;;;;6324458;27;20792;-65
2021/11/18 16:01:28;;;;;;;13.53;7.67;;;12.00;71.30;;;;;;6324654;27;20472;-64